createdAt,value
2023-04-30T00:02:09.350Z,100.00
2023-04-30T00:04:37.052Z,100.00
2023-04-30T00:07:04.079Z,100.00
2023-04-30T00:09:30.743Z,100.00
2023-04-30T00:11:57.564Z,100.00
2023-04-30T00:14:24.320Z,100.00
2023-04-30T00:16:51.167Z,100.00
2023-04-30T00:19:17.930Z,100.00
2023-04-30T00:21:44.709Z,100.00
2023-04-30T00:24:11.327Z,100.00
2023-04-30T00:26:39.157Z,100.00
2023-04-30T00:29:05.748Z,100.00
2023-04-30T00:31:32.391Z,100.00
2023-04-30T00:33:59.105Z,100.00
2023-04-30T00:36:25.865Z,100.00
2023-04-30T00:38:52.583Z,100.00
2023-04-30T00:41:21.203Z,100.00
2023-04-30T00:43:47.811Z,100.00
2023-04-30T00:46:14.465Z,100.00
2023-04-30T00:48:41.186Z,100.00
2023-04-30T00:51:08.418Z,100.00
2023-04-30T00:53:36.314Z,100.00
2023-04-30T00:56:02.980Z,100.00
2023-04-30T00:58:30.131Z,100.00
2023-04-30T01:00:57.075Z,100.00
2023-04-30T01:03:24.169Z,100.00
2023-04-30T01:05:50.831Z,100.00
2023-04-30T01:08:17.760Z,100.00
2023-04-30T01:11:17.584Z,100.00
2023-04-30T01:14:08.306Z,100.00
2023-04-30T01:16:51.300Z,100.00
2023-04-30T01:19:41.031Z,100.00
2023-04-30T01:22:12.054Z,100.00
2023-04-30T01:25:00.378Z,100.00
2023-04-30T01:27:48.604Z,100.00
2023-04-30T01:30:17.253Z,100.00
2023-04-30T01:32:43.895Z,100.00
2023-04-30T01:35:10.732Z,100.00
2023-04-30T01:38:00.185Z,100.00
2023-04-30T01:40:26.776Z,100.00
2023-04-30T01:43:18.368Z,100.00
2023-04-30T01:45:56.880Z,100.00
2023-04-30T01:48:51.219Z,100.00
2023-04-30T01:51:30.776Z,100.00
2023-04-30T01:54:00.624Z,100.00
2023-04-30T01:56:32.751Z,100.00
2023-04-30T01:59:00.864Z,100.00
2023-04-30T02:01:29.022Z,100.00
2023-04-30T02:03:55.926Z,100.00
2023-04-30T02:06:28.471Z,100.00
2023-04-30T02:08:56.762Z,100.00
2023-04-30T02:11:24.706Z,100.00
2023-04-30T02:13:51.768Z,100.00
2023-04-30T02:16:18.674Z,100.00
2023-04-30T02:18:45.995Z,100.00
2023-04-30T02:21:12.765Z,100.00
2023-04-30T02:23:39.343Z,100.00
2023-04-30T02:26:06.072Z,100.00
2023-04-30T02:28:32.672Z,100.00
2023-04-30T02:30:59.383Z,100.00
2023-04-30T02:33:26.066Z,100.00
2023-04-30T02:35:52.699Z,100.00
2023-04-30T02:38:19.331Z,100.00
2023-04-30T02:40:45.930Z,100.00
2023-04-30T02:43:12.531Z,100.00
2023-04-30T02:45:39.198Z,100.00
2023-04-30T02:48:06.072Z,100.00
2023-04-30T02:50:33.014Z,100.00
2023-04-30T02:53:00.040Z,100.00
2023-04-30T02:55:26.778Z,100.00
2023-04-30T02:57:53.506Z,100.00
2023-04-30T03:00:20.286Z,100.00
2023-04-30T03:02:47.034Z,100.00
2023-04-30T03:05:15.811Z,100.00
2023-04-30T03:07:42.536Z,100.00
2023-04-30T03:10:10.001Z,100.00
2023-04-30T03:12:36.707Z,100.00
2023-04-30T03:15:03.823Z,100.00
2023-04-30T03:17:30.491Z,100.00
2023-04-30T03:19:57.239Z,100.00
2023-04-30T03:22:26.742Z,100.00
2023-04-30T03:24:53.436Z,100.00
2023-04-30T03:27:20.213Z,100.00
2023-04-30T03:29:46.879Z,100.00
2023-04-30T03:32:13.520Z,100.00
2023-04-30T03:34:40.152Z,100.00
2023-04-30T03:37:06.728Z,100.00
2023-04-30T03:39:33.402Z,100.00
2023-04-30T03:42:00.446Z,100.00
2023-04-30T03:44:27.146Z,100.00
2023-04-30T03:46:53.784Z,100.00
2023-04-30T03:49:20.460Z,100.00
2023-04-30T03:51:47.532Z,100.00
2023-04-30T03:54:14.138Z,100.00
2023-04-30T03:56:41.243Z,100.00
2023-04-30T03:59:08.153Z,100.00
2023-04-30T04:01:34.903Z,100.00
2023-04-30T04:04:02.476Z,100.00
2023-04-30T04:06:29.317Z,100.00
2023-04-30T04:08:56.235Z,100.00
2023-04-30T04:11:22.958Z,100.00
2023-04-30T04:13:49.632Z,100.00
2023-04-30T04:16:16.333Z,100.00
2023-04-30T04:18:43.404Z,100.00
2023-04-30T04:21:10.092Z,100.00
2023-04-30T04:23:36.723Z,100.00
2023-04-30T04:26:03.372Z,100.00
2023-04-30T04:28:30.161Z,100.00
2023-04-30T04:30:56.843Z,100.00
2023-04-30T04:33:23.411Z,100.00
2023-04-30T04:35:50.019Z,100.00
2023-04-30T04:38:16.716Z,100.00
2023-04-30T04:40:51.589Z,100.00
2023-04-30T04:43:18.454Z,100.00
2023-04-30T04:45:45.187Z,100.00
2023-04-30T04:48:11.857Z,100.00
2023-04-30T04:50:38.579Z,100.00
2023-04-30T04:53:05.312Z,100.00
2023-04-30T04:55:32.237Z,100.00
2023-04-30T04:57:58.895Z,100.00
2023-04-30T05:00:25.962Z,100.00
2023-04-30T05:02:53.591Z,100.00
2023-04-30T05:05:20.524Z,100.00
2023-04-30T05:07:47.224Z,100.00
2023-04-30T05:10:14.134Z,100.00
2023-04-30T05:12:40.969Z,100.00
2023-04-30T05:15:08.109Z,100.00
2023-04-30T05:17:34.856Z,100.00
2023-04-30T05:20:01.899Z,100.00
2023-04-30T05:22:28.591Z,100.00
2023-04-30T05:24:55.971Z,100.00
2023-04-30T05:27:22.664Z,100.00
2023-04-30T05:29:49.412Z,100.00
2023-04-30T05:32:16.436Z,100.00
2023-04-30T05:34:43.067Z,100.00
2023-04-30T05:37:09.784Z,100.00
2023-04-30T05:39:36.415Z,100.00
2023-04-30T05:42:03.486Z,100.00
2023-04-30T05:44:33.090Z,100.00
2023-04-30T05:46:59.785Z,100.00
2023-04-30T05:49:27.497Z,100.00
2023-04-30T05:51:54.198Z,100.00
2023-04-30T05:54:20.848Z,100.00
2023-04-30T05:56:47.806Z,100.00
2023-04-30T05:59:14.453Z,100.00
2023-04-30T06:01:41.876Z,100.00
2023-04-30T06:04:09.429Z,97.82
2023-04-30T06:06:41.327Z,95.76
2023-04-30T06:09:08.277Z,94.67
2023-04-30T06:11:35.208Z,97.29
2023-04-30T06:14:06.058Z,96.43
2023-04-30T06:16:33.364Z,93.69
2023-04-30T06:19:00.455Z,91.40
2023-04-30T06:21:27.354Z,92.59
2023-04-30T06:23:54.162Z,92.26
2023-04-30T06:26:21.005Z,91.31
2023-04-30T06:28:47.645Z,93.14
2023-04-30T06:31:14.490Z,96.44
2023-04-30T06:33:41.196Z,92.36
2023-04-30T06:36:07.806Z,86.71
2023-04-30T06:38:34.440Z,83.82
2023-04-30T06:41:01.085Z,76.63
2023-04-30T06:43:27.762Z,71.72
2023-04-30T06:45:54.414Z,66.92
2023-04-30T06:48:21.084Z,63.64
2023-04-30T06:50:47.646Z,62.16
2023-04-30T06:53:15.278Z,60.46
2023-04-30T06:55:43.075Z,66.20
2023-04-30T06:58:09.810Z,64.60
2023-04-30T07:00:36.633Z,64.01
2023-04-30T07:03:04.894Z,64.06
2023-04-30T07:05:32.117Z,63.87
2023-04-30T07:08:01.447Z,61.38
2023-04-30T07:10:28.174Z,60.72
2023-04-30T07:12:55.288Z,61.96
2023-04-30T07:15:22.007Z,62.23
2023-04-30T07:17:48.770Z,62.51
2023-04-30T07:20:15.967Z,63.58
2023-04-30T07:22:45.859Z,61.94
2023-04-30T07:25:15.939Z,63.77
2023-04-30T07:27:42.647Z,63.26
2023-04-30T07:30:10.698Z,61.00
2023-04-30T07:32:38.230Z,60.62
2023-04-30T07:35:05.354Z,60.87
2023-04-30T07:37:34.912Z,62.79
2023-04-30T07:40:02.466Z,62.77
2023-04-30T07:42:29.148Z,64.46
2023-04-30T07:44:55.740Z,61.41
2023-04-30T07:47:22.524Z,60.61
2023-04-30T07:49:49.924Z,62.60
2023-04-30T07:52:16.755Z,62.79
2023-04-30T07:54:43.421Z,65.65
2023-04-30T07:57:10.078Z,62.19
2023-04-30T07:59:36.662Z,59.58
2023-04-30T08:02:03.882Z,60.25
2023-04-30T08:04:30.839Z,59.69
2023-04-30T08:06:57.540Z,58.94
2023-04-30T08:09:24.313Z,59.61
2023-04-30T08:11:51.372Z,59.73
2023-04-30T08:14:18.053Z,58.78
2023-04-30T08:16:44.898Z,56.55
2023-04-30T08:19:11.615Z,56.94
2023-04-30T08:21:39.034Z,57.10
2023-04-30T08:24:05.919Z,57.96
2023-04-30T08:26:32.594Z,55.70
2023-04-30T08:28:59.248Z,58.09
2023-04-30T08:31:26.076Z,57.83
2023-04-30T08:33:52.910Z,53.50
2023-04-30T08:36:19.837Z,53.11
2023-04-30T08:38:46.731Z,52.57
2023-04-30T08:41:18.782Z,53.29
2023-04-30T08:43:45.426Z,52.14
2023-04-30T08:46:13.985Z,50.96
2023-04-30T08:48:41.635Z,51.23
2023-04-30T08:51:08.466Z,50.91
2023-04-30T08:53:38.439Z,50.06
2023-04-30T08:56:05.956Z,50.13
2023-04-30T08:58:32.954Z,49.77
2023-04-30T09:01:00.764Z,48.57
2023-04-30T09:03:28.565Z,48.21
2023-04-30T09:05:55.572Z,48.88
2023-04-30T09:11:30.599Z,45.64
2023-04-30T09:14:01.888Z,45.09
2023-04-30T09:16:33.829Z,45.51
2023-04-30T09:19:08.147Z,44.71
2023-04-30T09:24:24.142Z,43.63
2023-04-30T09:26:51.753Z,43.77
2023-04-30T09:29:18.614Z,45.56
2023-04-30T09:32:01.354Z,44.99
2023-04-30T09:34:35.971Z,44.96
2023-04-30T09:37:02.664Z,45.37
2023-04-30T09:39:30.051Z,45.21
2023-04-30T09:42:10.150Z,43.30
2023-04-30T09:44:44.527Z,42.72
2023-04-30T09:47:15.992Z,41.78
2023-04-30T09:49:45.808Z,41.04
2023-04-30T09:52:12.837Z,41.75
2023-04-30T09:54:41.193Z,42.76
2023-04-30T09:57:11.454Z,41.94
2023-04-30T09:59:39.864Z,41.60
2023-04-30T10:02:08.841Z,42.31
2023-04-30T10:04:42.957Z,42.26
2023-04-30T10:07:15.619Z,43.46
2023-04-30T10:09:59.886Z,42.64
2023-04-30T10:12:44.664Z,43.63
2023-04-30T10:15:17.722Z,46.85
2023-04-30T10:17:50.211Z,48.54
2023-04-30T10:20:19.209Z,51.10
2023-04-30T10:22:48.660Z,54.10
2023-04-30T10:25:16.507Z,59.94
2023-04-30T10:27:43.712Z,61.66
2023-04-30T10:30:11.939Z,60.63
2023-04-30T10:32:57.813Z,62.95
2023-04-30T10:35:33.562Z,58.78
2023-04-30T10:38:17.019Z,56.80
2023-04-30T10:40:47.307Z,58.08
2023-04-30T10:43:14.182Z,52.55
2023-04-30T10:45:46.774Z,52.26
2023-04-30T10:48:16.083Z,50.16
2023-04-30T10:50:46.199Z,48.96
2023-04-30T10:53:16.202Z,50.52
2023-04-30T10:56:06.645Z,49.37
2023-04-30T10:58:35.739Z,46.35
2023-04-30T11:01:12.215Z,46.91
2023-04-30T11:03:41.298Z,46.16
2023-04-30T11:06:15.969Z,46.86
2023-04-30T11:08:47.612Z,44.18
2023-04-30T11:11:24.011Z,46.22
2023-04-30T11:14:01.340Z,46.20
2023-04-30T11:16:34.394Z,46.92
2023-04-30T11:19:11.681Z,47.34
2023-04-30T11:21:42.958Z,46.99
2023-04-30T11:24:23.353Z,46.56
2023-04-30T11:27:15.413Z,45.97
2023-04-30T11:29:44.159Z,44.04
2023-04-30T11:32:11.099Z,43.68
2023-04-30T11:34:39.093Z,43.60
2023-04-30T11:37:07.037Z,48.31
2023-04-30T11:39:37.314Z,50.41
2023-04-30T11:42:04.222Z,51.38
2023-04-30T11:44:31.146Z,48.91
2023-04-30T11:46:58.867Z,48.49
2023-04-30T11:49:27.130Z,49.82
2023-04-30T11:51:53.910Z,53.82
2023-04-30T11:54:20.703Z,60.13
2023-04-30T11:56:49.178Z,63.09
2023-04-30T11:59:17.006Z,63.48
2023-04-30T12:01:44.590Z,63.69
2023-04-30T12:06:37.055Z,65.73
2023-04-30T12:09:07.403Z,68.89
2023-04-30T12:11:35.739Z,67.53
2023-04-30T12:14:07.895Z,64.09
2023-04-30T12:16:51.284Z,66.13
2023-04-30T12:19:19.510Z,67.69
2023-04-30T12:21:48.540Z,66.47
2023-04-30T12:24:17.713Z,70.67
2023-04-30T12:26:45.237Z,70.72
2023-04-30T12:29:15.881Z,72.50
2023-04-30T12:31:43.795Z,71.82
2023-04-30T12:34:12.701Z,65.39
2023-04-30T12:36:42.893Z,63.07
2023-04-30T12:39:20.827Z,64.96
2023-04-30T12:41:49.529Z,65.16
2023-04-30T12:44:27.660Z,61.86
2023-04-30T12:46:57.385Z,63.06
2023-04-30T12:49:29.679Z,62.21
2023-04-30T12:52:09.030Z,60.34
2023-04-30T12:54:36.942Z,59.32
2023-04-30T12:57:12.467Z,59.92
2023-04-30T12:59:59.404Z,58.89
2023-04-30T13:02:28.745Z,56.60
2023-04-30T13:04:55.697Z,57.34
2023-04-30T13:07:23.267Z,58.04
2023-04-30T13:09:50.120Z,57.15
2023-04-30T13:12:17.236Z,55.75
2023-04-30T13:14:44.980Z,56.79
2023-04-30T13:17:14.154Z,55.79
2023-04-30T13:19:41.221Z,56.09
2023-04-30T13:22:08.076Z,56.67
2023-04-30T13:24:36.325Z,53.82
2023-04-30T13:27:04.350Z,52.80
2023-04-30T13:29:32.045Z,52.55
2023-04-30T13:31:59.369Z,52.32
2023-04-30T13:34:26.665Z,51.78
2023-04-30T13:36:57.322Z,51.27
2023-04-30T13:39:29.245Z,51.87
2023-04-30T13:41:56.213Z,52.73
2023-04-30T13:44:24.750Z,53.62
2023-04-30T13:46:52.357Z,56.01
2023-04-30T13:49:19.485Z,55.82
2023-04-30T13:51:46.067Z,57.68
2023-04-30T13:54:12.696Z,57.26
2023-04-30T13:56:42.998Z,58.11
2023-04-30T13:59:09.734Z,57.74
2023-04-30T14:01:37.366Z,56.53
2023-04-30T14:04:04.889Z,54.81
2023-04-30T14:06:32.134Z,54.86
2023-04-30T14:08:58.797Z,53.44
2023-04-30T14:11:27.512Z,51.95
2023-04-30T14:13:55.227Z,51.73
2023-04-30T14:16:23.021Z,52.24
2023-04-30T14:18:49.892Z,52.40
2023-04-30T14:21:16.598Z,53.16
2023-04-30T14:23:46.546Z,53.58
2023-04-30T14:26:13.363Z,51.55
2023-04-30T14:28:40.098Z,50.94
2023-04-30T14:31:06.864Z,49.86
2023-04-30T14:33:33.459Z,49.42
2023-04-30T14:36:03.186Z,49.08
2023-04-30T14:38:29.786Z,47.53
2023-04-30T14:40:56.417Z,47.26
2023-04-30T14:43:23.684Z,46.19
2023-04-30T14:45:52.068Z,44.86
2023-04-30T14:48:18.709Z,44.49
2023-04-30T14:50:49.280Z,43.98
2023-04-30T14:53:16.421Z,42.75
2023-04-30T14:55:43.954Z,42.35
2023-04-30T15:01:10.865Z,44.11
2023-04-30T15:03:41.020Z,44.62
2023-04-30T15:06:08.898Z,43.83
2023-04-30T15:08:36.737Z,50.15
2023-04-30T15:11:07.641Z,53.24
2023-04-30T15:13:35.053Z,55.12
2023-04-30T15:16:02.358Z,56.32
2023-04-30T15:18:29.838Z,55.95
2023-04-30T15:20:56.791Z,60.26
2023-04-30T15:23:24.154Z,62.01
2023-04-30T15:26:05.825Z,62.14
2023-04-30T15:31:32.319Z,57.05
2023-04-30T15:34:01.066Z,55.43
2023-04-30T15:36:28.792Z,51.65
2023-04-30T15:38:56.598Z,51.00
2023-04-30T15:41:24.902Z,49.11
2023-04-30T15:43:52.250Z,49.26
2023-04-30T15:46:26.021Z,50.61
2023-04-30T15:48:53.482Z,50.22
2023-04-30T15:51:27.354Z,50.18
2023-04-30T15:54:03.458Z,50.49
2023-04-30T15:56:32.039Z,50.54
2023-04-30T15:59:05.981Z,50.19
2023-04-30T16:01:34.102Z,50.07
2023-04-30T16:04:01.514Z,50.55
2023-04-30T16:06:30.239Z,50.61
2023-04-30T16:08:57.340Z,50.91
2023-04-30T16:11:24.533Z,50.18
2023-04-30T16:14:14.236Z,49.79
2023-04-30T16:16:41.516Z,52.49
2023-04-30T16:19:30.763Z,53.87
2023-04-30T16:21:58.410Z,53.40
2023-04-30T16:24:38.971Z,52.33
2023-04-30T16:27:15.439Z,50.77
2023-04-30T16:29:43.604Z,49.36
2023-04-30T16:32:13.051Z,49.75
2023-04-30T16:34:41.289Z,48.98
2023-04-30T16:37:07.874Z,49.45
2023-04-30T16:39:34.542Z,49.74
2023-04-30T16:42:02.357Z,51.47
2023-04-30T16:44:28.990Z,51.12
2023-04-30T16:46:58.247Z,50.27
2023-04-30T16:49:24.975Z,49.78
2023-04-30T16:51:51.820Z,49.30
2023-04-30T16:54:18.896Z,48.42
2023-04-30T16:56:45.615Z,48.51
2023-04-30T16:59:12.315Z,49.76
2023-04-30T17:01:39.200Z,49.86
2023-04-30T17:04:07.236Z,50.22
2023-04-30T17:07:11.980Z,50.95
2023-04-30T17:09:38.637Z,51.12
2023-04-30T17:12:05.601Z,52.03
2023-04-30T17:14:34.264Z,52.74
2023-04-30T17:17:01.982Z,53.49
2023-04-30T17:19:28.877Z,54.37
2023-04-30T17:21:57.179Z,54.56
2023-04-30T17:24:24.390Z,55.95
2023-04-30T17:26:51.756Z,57.55
2023-04-30T17:29:22.803Z,59.08
2023-04-30T17:31:50.107Z,62.34
2023-04-30T17:34:17.733Z,64.29
2023-04-30T17:36:44.947Z,67.04
2023-04-30T17:39:13.026Z,68.71
2023-04-30T17:41:41.182Z,71.55
2023-04-30T17:44:08.520Z,73.38
2023-04-30T17:46:35.900Z,74.55
2023-04-30T17:49:03.715Z,76.26
2023-04-30T17:51:31.799Z,79.38
2023-04-30T17:54:02.724Z,82.96
2023-04-30T17:56:33.448Z,84.09
2023-04-30T17:59:01.134Z,87.18
2023-04-30T18:01:28.185Z,87.40
2023-04-30T18:03:55.527Z,87.94
2023-04-30T18:06:22.350Z,89.78
2023-04-30T18:08:49.409Z,90.40
2023-04-30T18:11:16.737Z,93.96
2023-04-30T18:13:43.790Z,93.86
2023-04-30T18:16:10.840Z,93.52
2023-04-30T18:18:37.703Z,94.12
2023-04-30T18:21:08.914Z,97.04
2023-04-30T18:23:37.302Z,99.04
2023-04-30T18:26:05.151Z,99.06
2023-04-30T18:28:31.838Z,100.00
2023-04-30T18:30:58.537Z,100.00
2023-04-30T18:33:26.319Z,100.00
2023-04-30T18:35:53.239Z,100.00
2023-04-30T18:38:20.867Z,100.00
2023-04-30T18:40:47.664Z,100.00
2023-04-30T18:43:16.392Z,100.00
2023-04-30T18:45:43.179Z,100.00
2023-04-30T18:48:10.098Z,100.00
2023-04-30T18:50:37.384Z,100.00
2023-04-30T18:53:04.725Z,100.00
2023-04-30T18:55:31.601Z,94.51
2023-04-30T18:57:58.817Z,92.33
2023-04-30T19:00:25.972Z,91.39
2023-04-30T19:02:52.849Z,90.39
2023-04-30T19:05:19.916Z,88.50
2023-04-30T19:07:46.907Z,87.87
2023-04-30T19:10:13.811Z,87.47
2023-04-30T19:12:41.530Z,86.68
2023-04-30T19:15:10.004Z,87.03
2023-04-30T19:17:36.755Z,85.00
2023-04-30T19:20:04.132Z,81.88
2023-04-30T19:22:31.189Z,82.43
2023-04-30T19:25:01.254Z,81.78
2023-04-30T19:27:28.237Z,80.21
2023-04-30T19:29:55.279Z,78.77
2023-04-30T19:32:22.191Z,76.85
2023-04-30T19:34:49.042Z,77.87
2023-04-30T19:37:15.795Z,74.81
2023-04-30T19:39:43.219Z,73.88
2023-04-30T19:42:10.092Z,73.90
2023-04-30T19:44:37.091Z,73.82
2023-04-30T19:47:05.104Z,75.68
2023-04-30T19:49:34.413Z,75.34
2023-04-30T19:52:02.423Z,77.22
2023-04-30T19:54:29.110Z,80.45
2023-04-30T19:56:56.041Z,83.79
2023-04-30T19:59:22.950Z,83.91
2023-04-30T20:01:50.129Z,82.96
2023-04-30T20:04:17.002Z,83.18
2023-04-30T20:06:44.960Z,83.72
2023-04-30T20:09:12.035Z,84.26
2023-04-30T20:11:38.839Z,85.04
2023-04-30T20:14:05.717Z,85.61
2023-04-30T20:16:32.687Z,85.81
2023-04-30T20:18:59.605Z,84.97
2023-04-30T20:21:26.434Z,87.48
2023-04-30T20:23:53.403Z,87.83
2023-04-30T20:26:21.617Z,89.20
2023-04-30T20:28:48.417Z,89.15
2023-04-30T20:31:15.367Z,89.11
2023-04-30T20:33:42.450Z,86.64
2023-04-30T20:36:09.203Z,86.22
2023-04-30T20:38:36.228Z,85.54
2023-04-30T20:41:02.905Z,85.54
2023-04-30T20:43:29.698Z,85.36
2023-04-30T20:45:58.906Z,87.78
2023-04-30T20:48:26.441Z,87.32
2023-04-30T20:50:53.052Z,86.86
2023-04-30T20:53:19.953Z,87.16
2023-04-30T20:55:46.597Z,88.06
2023-04-30T20:58:13.244Z,87.49
2023-04-30T21:00:40.113Z,87.33
2023-04-30T21:03:07.015Z,87.91
2023-04-30T21:05:34.356Z,88.26
2023-04-30T21:08:01.920Z,90.27
2023-04-30T21:10:36.229Z,90.16
2023-04-30T21:13:08.872Z,90.00
2023-04-30T21:15:36.382Z,91.14
2023-04-30T21:18:03.482Z,92.05
2023-04-30T21:20:31.657Z,92.36
2023-04-30T21:22:58.618Z,93.37
2023-04-30T21:25:25.252Z,93.85
2023-04-30T21:27:52.310Z,94.18
2023-04-30T21:30:19.210Z,94.92
2023-04-30T21:32:48.848Z,94.94
2023-04-30T21:35:15.842Z,94.63
2023-04-30T21:37:42.563Z,97.22
2023-04-30T21:40:09.647Z,95.47
2023-04-30T21:42:36.453Z,96.49
2023-04-30T21:45:03.450Z,95.73
2023-04-30T21:47:30.843Z,94.85
2023-04-30T21:49:58.830Z,94.95
2023-04-30T21:52:25.962Z,94.20
2023-04-30T21:54:52.634Z,93.85
2023-04-30T21:57:19.573Z,93.37
2023-04-30T21:59:46.224Z,92.65
2023-04-30T22:02:23.316Z,93.53
2023-04-30T22:04:51.247Z,93.49
2023-04-30T22:07:18.293Z,92.77
2023-04-30T22:09:45.065Z,93.33
2023-04-30T22:12:12.276Z,93.34
2023-04-30T22:14:39.232Z,93.08
2023-04-30T22:17:06.014Z,94.17
2023-04-30T22:19:32.631Z,96.46
2023-04-30T22:21:59.719Z,98.79
2023-04-30T22:24:26.332Z,97.35
2023-04-30T22:26:52.959Z,97.02
2023-04-30T22:29:19.945Z,97.37
2023-04-30T22:31:46.989Z,97.46
2023-04-30T22:34:15.515Z,99.04
2023-04-30T22:36:43.626Z,100.00
2023-04-30T22:39:10.245Z,100.00
2023-04-30T22:41:36.922Z,100.00
2023-04-30T22:44:04.748Z,100.00
2023-04-30T22:46:33.575Z,100.00
2023-04-30T22:49:01.056Z,100.00
2023-04-30T22:51:27.680Z,100.00
2023-04-30T22:53:55.497Z,100.00
2023-04-30T22:56:23.355Z,100.00
2023-04-30T22:58:50.079Z,100.00
2023-04-30T23:01:16.960Z,100.00
2023-04-30T23:03:43.768Z,100.00
2023-04-30T23:06:11.086Z,100.00
2023-04-30T23:08:37.855Z,100.00
2023-04-30T23:11:05.314Z,100.00
2023-04-30T23:13:32.024Z,100.00
2023-04-30T23:15:59.542Z,100.00
2023-04-30T23:18:26.369Z,100.00
2023-04-30T23:20:59.011Z,100.00
2023-04-30T23:23:26.791Z,100.00
2023-04-30T23:25:54.744Z,100.00
2023-04-30T23:28:22.473Z,100.00
2023-04-30T23:30:52.629Z,100.00
2023-04-30T23:33:19.947Z,100.00
2023-04-30T23:35:47.090Z,100.00
2023-04-30T23:38:14.888Z,100.00
2023-04-30T23:40:42.326Z,100.00
2023-04-30T23:43:09.554Z,100.00
2023-04-30T23:45:36.175Z,100.00
2023-04-30T23:48:02.905Z,100.00
2023-04-30T23:50:29.625Z,100.00
2023-04-30T23:52:56.255Z,100.00
2023-04-30T23:55:22.920Z,100.00
2023-04-30T23:57:49.517Z,100.00
